Time;durP1;ratioP1;P1;durP2;ratioP2;P2;SDS_P1;SDS_P2;PMS_P1;PMS_P2;Temp;Humidity;BMP_temperature;BMP_pressure;BME280_temperature;BME280_humidity;BME280_pressure;Samples;Min_cycle;Max_cycle;Signal;HPM_P1;HPM_P2
2021/06/27 00:01:25;;;;;;;31.48;17.10;;;;;;;23.45;67.86;99315.50;5133313;27;20472;-71
2021/06/27 00:04:14;;;;;;;27.92;15.82;;;;;;;23.43;67.75;99311.13;5118717;27;20086;-70
2021/06/27 00:06:40;;;;;;;30.33;16.88;;;;;;;23.43;68.01;99321.94;5133954;27;20078;-72
2021/06/27 00:09:07;;;;;;;31.52;17.77;;;;;;;23.39;68.21;99312.63;5133539;27;20043;-70
2021/06/27 00:11:34;;;;;;;31.57;17.57;;;;;;;23.31;69.10;99322.81;5133471;27;20044;-71
2021/06/27 00:14:00;;;;;;;36.28;19.35;;;;;;;23.22;69.20;99309.53;5133624;27;20055;-71
2021/06/27 00:16:29;;;;;;;33.63;18.35;;;;;;;23.18;69.32;99318.25;5133343;27;20039;-72
2021/06/27 00:18:56;;;;;;;31.55;18.15;;;;;;;23.18;69.46;99316.38;5133749;27;20398;-70
2021/06/27 00:21:22;;;;;;;;;;;;;;;23.15;69.31;99313.25;5133886;27;20038;-69
2021/06/27 00:23:50;;;;;;;29.23;17.70;;;;;;;23.04;69.17;99312.84;5133465;27;20261;-72
2021/06/27 00:26:18;;;;;;;33.33;18.42;;;;;;;22.99;69.66;99304.56;5114989;27;20053;-69
2021/06/27 00:28:43;;;;;;;;;;;;;;;22.98;70.04;99307.44;5133978;27;20038;-71
2021/06/27 00:31:10;;;;;;;27.65;15.88;;;;;;;22.96;69.68;99302.28;5132960;27;19921;-71
2021/06/27 00:33:36;;;;;;;30.30;17.67;;;;;;;22.97;69.86;99314.72;5132998;27;20500;-71
2021/06/27 00:36:03;;;;;;;34.45;16.92;;;;;;;22.93;69.65;99303.53;5114908;27;20031;-71
2021/06/27 00:38:28;;;;;;;26.30;16.85;;;;;;;22.93;70.32;99313.50;5133196;27;20122;-71
2021/06/27 00:40:54;;;;;;;29.10;17.00;;;;;;;22.94;70.50;99307.03;5133111;27;20066;-70
2021/06/27 00:43:20;;;;;;;31.65;17.20;;;;;;;22.92;70.56;99306.44;5132503;27;20066;-73
2021/06/27 00:45:46;;;;;;;25.63;16.13;;;;;;;22.91;69.70;99313.69;5133189;27;20039;-70
2021/06/27 00:48:12;;;;;;;23.17;15.00;;;;;;;22.94;69.65;99307.03;5131413;27;20100;-70
2021/06/27 00:50:47;;;;;;;27.02;14.88;;;;;;;22.96;68.95;99309.53;5133222;27;20038;-72
2021/06/27 00:53:13;;;;;;;23.27;15.65;;;;;;;22.94;69.58;99305.19;5132932;27;20051;-70
2021/06/27 00:55:40;;;;;;;24.67;14.32;;;;;;;22.91;68.73;99307.47;5132984;27;20428;-74
2021/06/27 00:58:06;;;;;;;30.52;15.40;;;;;;;22.92;68.81;99311.81;5135058;27;20039;-71
2021/06/27 01:00:38;;;;;;;28.40;14.98;;;;;;;22.90;68.71;99316.59;5133328;27;20092;-71
2021/06/27 01:03:04;;;;;;;25.83;15.23;;;;;;;22.89;68.92;99320.31;5132955;27;20110;-70
2021/06/27 01:05:34;;;;;;;26.05;15.68;;;;;;;22.84;69.08;99314.72;5132864;28;20139;-70
2021/06/27 01:08:00;;;;;;;27.48;14.93;;;;;;;22.85;69.58;99317.19;5118997;27;20043;-70
2021/06/27 01:10:26;;;;;;;27.77;15.38;;;;;;;22.83;69.51;99316.59;5139481;27;20035;-74
2021/06/27 01:12:53;;;;;;;23.67;13.75;;;;;;;22.83;69.88;99321.16;5139819;27;20035;-70
2021/06/27 01:15:19;;;;;;;24.42;13.93;;;;;;;22.84;69.57;99323.66;5139552;27;20145;-72
2021/06/27 01:17:47;;;;;;;22.40;14.10;;;;;;;22.85;69.35;99316.38;5139679;27;20388;-71
2021/06/27 01:20:34;;;;;;;25.00;14.15;;;;;;;22.84;69.97;99312.03;5139524;27;20050;-72
2021/06/27 01:23:02;;;;;;;26.13;13.52;;;;;;;22.85;69.70;99313.69;5139704;27;20567;-75
2021/06/27 01:25:34;;;;;;;22.88;13.93;;;;;;;22.89;69.73;99314.91;5139681;27;20050;-73
2021/06/27 01:28:01;;;;;;;22.90;13.35;;;;;;;22.91;69.40;99307.47;5139748;27;20451;-72
2021/06/27 01:30:28;;;;;;;21.70;13.00;;;;;;;22.96;69.16;99310.34;5139570;27;20082;-71
2021/06/27 01:32:57;;;;;;;24.95;15.23;;;;;;;22.94;69.75;99313.28;5139648;27;20070;-70
2021/06/27 01:35:24;;;;;;;26.50;16.20;;;;;;;22.84;70.43;99306.63;5139437;27;20051;-70
2021/06/27 01:37:52;;;;;;;31.23;17.02;;;;;;;22.68;71.55;99311.41;5139247;27;20039;-74
2021/06/27 01:40:18;;;;;;;;;;;;;;;22.51;71.91;99302.88;5139306;27;20090;-72
2021/06/27 01:42:45;;;;;;;25.60;16.10;;;;;;;22.43;71.74;99305.75;5139335;27;19923;-70
2021/06/27 01:45:13;;;;;;;30.30;16.27;;;;;;;22.42;71.67;99299.56;5139114;27;20058;-70
2021/06/27 01:47:39;;;;;;;24.60;14.80;;;;;;;22.43;72.16;99303.91;5139445;27;20031;-74
2021/06/27 01:50:07;;;;;;;23.45;15.40;;;;;;;22.44;72.08;99297.50;5139331;27;20520;-74
2021/06/27 01:52:34;;;;;;;30.42;15.23;;;;;;;22.48;71.81;99294.38;5139188;27;20039;-70
2021/06/27 01:55:00;;;;;;;28.65;15.43;;;;;;;22.50;71.87;99298.53;5139452;27;20039;-70
2021/06/27 01:57:26;;;;;;;23.70;15.07;;;;;;;22.49;71.23;99304.94;5139136;27;20039;-70
2021/06/27 01:59:52;;;;;;;26.55;15.68;;;;;;;22.50;71.33;99298.53;5139356;27;20075;-72
2021/06/27 02:02:18;;;;;;;25.77;15.13;;;;;;;22.56;70.99;99294.19;5123283;27;20152;-74
2021/06/27 02:04:45;;;;;;;26.38;15.00;;;;;;;22.62;71.09;99294.19;5117502;28;20039;-71
2021/06/27 02:07:11;;;;;;;23.23;15.35;;;;;;;22.66;70.68;99297.28;5099820;28;20059;-70
2021/06/27 02:09:37;;;;;;;23.13;14.80;;;;;;;22.66;70.56;99291.91;5118381;28;20052;-71
2021/06/27 02:12:03;;;;;;;25.10;15.23;;;;;;;22.72;70.45;99290.25;5118616;28;20043;-71
2021/06/27 02:14:29;;;;;;;22.42;14.30;;;;;;;22.80;70.30;99289.22;5117898;28;20376;-72
2021/06/27 02:16:55;;;;;;;24.38;15.48;;;;;;;22.90;70.26;99286.91;5118647;28;20047;-70
2021/06/27 02:19:21;;;;;;;24.27;15.05;;;;;;;23.00;69.95;99286.50;5097500;28;20044;-70
2021/06/27 02:21:47;;;;;;;19.27;14.45;;;;;;;23.07;69.28;99301.63;5115432;28;20043;-74
2021/06/27 02:24:12;;;;;;;29.83;15.13;;;;;;;23.16;69.27;99296.06;5115558;28;20048;-73
2021/06/27 02:26:38;;;;;;;24.67;14.90;;;;;;;23.24;69.31;99293.97;5115256;28;20108;-75
2021/06/27 02:29:05;;;;;;;22.02;14.38;;;;;;;23.35;68.77;99303.28;5115013;28;20126;-74
2021/06/27 02:31:32;;;;;;;18.75;13.90;;;;;;;23.45;68.94;99299.31;5114688;28;20055;-72
2021/06/27 02:33:59;;;;;;;18.77;14.15;;;;;;;23.53;68.39;99308.00;5115020;28;20043;-76
2021/06/27 02:36:25;;;;;;;19.58;14.18;;;;;;;23.59;68.24;99304.47;5114542;28;20043;-71
2021/06/27 02:38:51;;;;;;;23.38;14.23;;;;;;;23.69;67.78;99305.88;5114987;28;20537;-71
2021/06/27 02:41:18;;;;;;;20.13;13.77;;;;;;;23.79;67.52;99302.72;5114830;28;20043;-75
2021/06/27 02:43:45;;;;;;;22.98;14.57;;;;;;;23.89;67.47;99305.81;5122389;27;20138;-73
2021/06/27 02:46:11;;;;;;;23.02;14.48;;;;;;;23.96;66.98;99309.31;5135289;27;20100;-72
2021/06/27 02:48:37;;;;;;;26.33;14.77;;;;;;;23.98;66.65;99309.94;5135483;27;20047;-70
2021/06/27 02:51:04;;;;;;;22.67;14.73;;;;;;;24.03;66.63;99299.31;5134998;27;20054;-74
2021/06/27 02:53:30;;;;;;;23.40;14.85;;;;;;;24.12;65.95;99301.78;5135090;27;20061;-74
2021/06/27 02:56:08;;;;;;;17.98;14.40;;;;;;;24.23;65.87;99309.19;5135298;27;20490;-70
2021/06/27 02:58:43;;;;;;;19.85;14.20;;;;;;;24.37;65.73;99304.53;5134724;27;20039;-73
2021/06/27 03:01:10;;;;;;;19.10;13.60;;;;;;;24.49;65.64;99308.19;5134988;27;20134;-71
2021/06/27 03:03:38;;;;;;;22.33;13.90;;;;;;;24.59;65.49;99306.88;5134935;27;20047;-75
2021/06/27 03:06:03;;;;;;;;;;;;;;;24.68;64.99;99317.22;5135496;27;20088;-73
2021/06/27 03:08:30;;;;;;;29.23;14.25;;;;;;;24.69;65.56;99307.25;5134686;27;20294;-72
2021/06/27 03:10:57;;;;;;;24.00;14.43;;;;;;;24.70;65.63;99308.91;5135114;27;20456;-71
2021/06/27 03:13:23;;;;;;;23.43;15.10;;;;;;;24.84;65.31;99312.31;5133992;27;20043;-71
2021/06/27 03:15:49;;;;;;;28.80;15.35;;;;;;;25.01;64.80;99310.72;5134679;27;20069;-71
2021/06/27 03:18:14;;;;;;;20.90;13.98;;;;;;;25.16;64.73;99313.06;5134858;27;20583;-72
2021/06/27 03:20:40;;;;;;;22.42;15.02;;;;;;;25.19;64.96;99311.81;5134373;27;20054;-74
2021/06/27 03:23:08;;;;;;;24.17;15.85;;;;;;;25.17;64.62;99313.88;5134715;27;20031;-71
2021/06/27 03:25:35;;;;;;;27.55;16.20;;;;;;;25.20;64.38;99308.03;5134309;27;20548;-71
2021/06/27 03:28:01;;;;;;;21.95;16.38;;;;;;;25.26;63.61;99307.16;5134432;27;20054;-71
2021/06/27 03:30:27;;;;;;;25.17;16.15;;;;;;;25.35;63.34;99310.38;5132773;27;20093;-69
2021/06/27 03:32:53;;;;;;;24.35;16.15;;;;;;;25.45;63.13;99301.78;5134429;27;20089;-71
2021/06/27 03:35:19;;;;;;;31.23;16.85;;;;;;;25.55;63.25;99304.78;5134269;27;20168;-72
2021/06/27 03:40:17;;;;;;;24.17;15.95;;;;;;;25.76;63.18;99308.09;5134264;27;20047;-74
2021/06/27 03:42:44;;;;;;;24.58;15.77;;;;;;;25.81;63.39;99303.63;5133739;27;20408;-71
2021/06/27 03:45:10;;;;;;;24.65;16.55;;;;;;;25.89;63.15;99298.97;5133789;27;20050;-72
2021/06/27 03:47:36;;;;;;;22.75;15.63;;;;;;;26.05;62.77;99303.75;5133903;27;20047;-74
2021/06/27 03:50:02;;;;;;;21.02;14.00;;;;;;;26.19;63.35;99299.00;5134182;27;20045;-69
2021/06/27 03:52:28;;;;;;;23.17;13.88;;;;;;;26.42;62.68;99308.28;5134006;27;20135;-73
2021/06/27 03:54:55;;;;;;;22.38;13.73;;;;;;;26.66;61.87;99313.75;5133776;27;20660;-70
2021/06/27 03:57:20;;;;;;;23.90;16.50;;;;;;;27.29;58.82;99314.97;5134331;27;20241;-70
2021/06/27 03:59:46;;;;;;;24.88;16.40;;;;;;;28.72;55.39;99307.19;5134073;27;20100;-72
2021/06/27 04:02:12;;;;;;;22.30;15.77;;;;;;;30.05;51.87;99312.88;5133972;27;20035;-71
2021/06/27 04:04:38;;;;;;;20.48;17.38;;;;;;;31.22;48.11;99307.91;5133445;27;20093;-71
2021/06/27 04:07:04;;;;;;;25.83;16.92;;;;;;;32.12;45.61;99308.84;5133695;27;20046;-71
2021/06/27 04:09:29;;;;;;;31.38;23.90;;;;;;;32.74;42.71;99304.25;5133972;27;20062;-70
2021/06/27 04:11:55;;;;;;;30.60;21.58;;;;;;;33.43;40.48;99303.91;5135492;27;20035;-70
2021/06/27 04:14:21;;;;;;;31.90;22.85;;;;;;;34.12;38.69;99299.50;5132624;27;20492;-71
2021/06/27 04:16:47;;;;;;;28.43;19.67;;;;;;;34.39;40.23;99295.47;5133477;27;20039;-73
2021/06/27 04:19:13;;;;;;;23.60;21.03;;;;;;;34.78;38.65;99300.09;5133768;27;20403;-71
2021/06/27 04:21:39;;;;;;;31.58;23.27;;;;;;;35.23;37.11;99297.22;5133262;27;20051;-72
2021/06/27 04:24:05;;;;;;;24.58;19.38;;;;;;;35.63;36.08;99303.34;5133469;27;20558;-71
2021/06/27 04:26:31;;;;;;;27.88;18.98;;;;;;;35.94;34.98;99308.47;5133575;27;20051;-72
2021/06/27 04:28:57;;;;;;;22.00;18.97;;;;;;;36.08;35.05;99299.50;5133363;27;20492;-71
2021/06/27 04:31:23;;;;;;;24.50;17.90;;;;;;;36.10;35.04;99305.50;5133587;27;20121;-75
2021/06/27 04:33:48;;;;;;;27.30;19.13;;;;;;;36.49;34.29;99315.41;5133448;27;20319;-71
2021/06/27 04:36:17;;;;;;;33.03;22.53;;;;;;;36.70;33.32;99309.53;5133191;27;20453;-74
2021/06/27 04:38:42;;;;;;;29.23;24.08;;;;;;;36.91;33.33;99318.28;5133005;27;20050;-72
2021/06/27 04:41:08;;;;;;;33.00;23.67;;;;;;;36.84;33.79;99315.06;5133068;27;20039;-73
2021/06/27 04:43:34;;;;;;;30.15;24.27;;;;;;;36.77;34.97;99307.22;5128381;27;20051;-75
2021/06/27 04:46:00;;;;;;;29.70;21.87;;;;;;;36.97;33.26;99311.56;5133310;27;20383;-72
2021/06/27 04:48:26;;;;;;;35.53;21.27;;;;;;;37.09;34.18;99305.56;5114821;27;20050;-73
2021/06/27 04:50:51;;;;;;;31.58;19.48;;;;;;;37.11;34.47;99308.03;5133080;27;20395;-73
2021/06/27 04:53:17;;;;;;;30.98;19.13;;;;;;;37.06;34.19;99308.94;5114735;27;20050;-75
2021/06/27 04:55:44;;;;;;;24.23;18.30;;;;;;;37.35;34.04;99300.41;5133098;27;20058;-73
2021/06/27 04:58:10;;;;;;;23.38;16.73;;;;;;;37.65;32.97;99297.31;5132873;27;20035;-73
2021/06/27 05:00:37;;;;;;;18.60;14.57;;;;;;;37.18;31.49;99289.13;5114311;28;20070;-77
2021/06/27 05:03:04;;;;;;;20.85;13.88;;;;;;;37.33;31.43;99291.56;5114811;27;20050;-74
2021/06/27 05:05:30;;;;;;;19.52;13.43;;;;;;;37.61;31.29;99291.59;5132740;27;20408;-75
2021/06/27 05:07:56;;;;;;;16.52;11.27;;;;;;;37.83;29.53;99287.28;5132758;28;20047;-72
2021/06/27 05:10:22;;;;;;;14.50;11.07;;;;;;;38.01;29.47;99289.09;5132651;28;20035;-73
2021/06/27 05:12:48;;;;;;;12.85;10.32;;;;;;;38.55;28.59;99284.81;5080639;28;20095;-73
2021/06/27 05:15:14;;;;;;;14.18;9.93;;;;;;;38.54;28.29;99283.16;5132860;28;20043;-73
2021/06/27 05:17:40;;;;;;;13.63;9.82;;;;;;;39.34;27.09;99276.94;5132701;28;20047;-70
2021/06/27 05:20:06;;;;;;;13.90;9.88;;;;;;;39.58;26.54;99276.47;5097295;28;20095;-74
2021/06/27 05:22:33;;;;;;;12.55;9.55;;;;;;;39.93;25.79;99276.56;5113992;28;20121;-74
2021/06/27 05:24:59;;;;;;;14.38;9.23;;;;;;;40.22;25.38;99283.44;5132765;28;20093;-78
2021/06/27 05:27:24;;;;;;;;;;;;;;;40.14;25.57;99287.81;5133235;27;20043;-73
2021/06/27 05:29:50;;;;;;;15.40;10.25;;;;;;;39.97;26.13;99283.09;5132258;28;20017;-78
2021/06/27 05:32:16;;;;;;;12.85;9.88;;;;;;;40.51;25.22;99287.47;5132685;28;20449;-72
2021/06/27 05:34:42;;;;;;;10.98;9.85;;;;;;;40.63;25.55;99290.41;5132636;28;20043;-74
2021/06/27 05:37:08;;;;;;;16.80;10.52;;;;;;;40.17;26.18;99295.50;5132635;28;20174;-75
2021/06/27 05:39:33;;;;;;;14.00;10.30;;;;;;;41.00;25.30;99296.38;5131997;28;20404;-72
2021/06/27 05:41:59;;;;;;;16.15;10.18;;;;;;;40.73;25.79;99290.06;5132364;28;20047;-82
2021/06/27 05:44:25;;;;;;;12.80;9.25;;;;;;;41.20;24.55;99288.44;5132463;28;20058;-75
2021/06/27 05:46:51;;;;;;;11.45;9.55;;;;;;;41.33;24.65;99287.38;5132639;28;20051;-72
2021/06/27 05:49:17;;;;;;;13.02;8.90;;;;;;;40.53;25.08;99276.88;5132626;27;20097;-73
2021/06/27 05:51:42;;;;;;;;;;;;;;;40.02;25.88;99279.34;5132768;28;20396;-75
2021/06/27 05:54:09;;;;;;;11.35;9.18;;;;;;;40.96;24.91;99281.47;5132099;27;19926;-75
2021/06/27 05:56:36;;;;;;;19.27;16.10;;;;;;;41.19;24.23;99282.06;5134820;27;20039;-75
2021/06/27 05:59:02;;;;;;;13.93;9.23;;;;;;;41.53;24.30;99268.38;5134828;27;20039;-73
2021/06/27 06:01:28;;;;;;;12.55;8.02;;;;;;;41.48;24.58;99268.56;5136074;27;20066;-75
2021/06/27 06:03:53;;;;;;;;;;;;;;;41.43;23.96;99271.53;5136408;27;20487;-75
2021/06/27 06:06:19;;;;;;;12.15;8.80;;;;;;;42.18;23.95;99265.25;5135594;27;19915;-76
2021/06/27 06:08:46;;;;;;;;;;;;;;;42.06;23.71;99271.59;5128744;27;20031;-75
2021/06/27 06:11:14;;;;;;;11.93;8.80;;;;;;;41.14;24.93;99271.16;5125868;27;19968;-75
2021/06/27 06:13:41;;;;;;;10.75;8.70;;;;;;;41.03;26.05;99267.16;5125912;27;20031;-74
2021/06/27 06:16:09;;;;;;;31.85;9.80;;;;;;;41.36;26.33;99263.69;5125000;27;20046;-74
2021/06/27 06:18:36;;;;;;;9.10;8.20;;;;;;;41.66;24.90;99261.75;5121373;27;20092;-71
2021/06/27 06:21:03;;;;;;;21.17;8.98;;;;;;;42.30;24.63;99262.56;5122508;27;20047;-74
2021/06/27 06:23:29;;;;;;;14.85;10.30;;;;;;;41.70;24.11;99256.34;5126744;27;20055;-73
2021/06/27 06:25:56;;;;;;;11.00;8.68;;;;;;;41.83;24.54;99257.19;5124733;27;20528;-75
2021/06/27 06:28:21;;;;;;;13.18;8.75;;;;;;;42.23;23.45;99259.50;5122994;27;20127;-75
2021/06/27 06:30:47;;;;;;;11.52;8.93;;;;;;;41.56;24.34;99267.69;5128176;27;20103;-75
2021/06/27 06:33:13;;;;;;;11.38;9.02;;;;;;;41.54;24.77;99264.44;5126631;27;20048;-73
2021/06/27 06:35:41;;;;;;;10.73;8.75;;;;;;;41.36;24.10;99264.53;5126256;27;20069;-71
2021/06/27 06:38:07;;;;;;;12.30;8.93;;;;;;;40.62;25.21;99263.81;5124982;27;20058;-79
2021/06/27 06:40:34;;;;;;;13.07;9.70;;;;;;;40.54;25.09;99259.06;5126063;27;20125;-80
2021/06/27 06:42:59;;;;;;;;;;;;;;;40.88;24.96;99255.41;5112329;27;20893;-80
2021/06/27 06:45:25;;;;;;;11.77;8.10;;;;;;;41.24;24.52;99262.47;5117754;27;19926;-78
2021/06/27 06:47:51;;;;;;;;;;;;;;;40.81;25.24;99257.06;5105065;27;20062;-77
2021/06/27 06:50:17;;;;;;;9.40;8.48;;;;;;;40.89;25.00;99259.03;5121731;27;20018;-79
2021/06/27 06:52:44;;;;;;;11.18;9.30;;;;;;;39.97;25.62;99266.47;5124437;27;20046;-79
2021/06/27 06:55:10;;;;;;;9.75;8.80;;;;;;;40.25;25.96;99255.06;5124100;27;20067;-74
2021/06/27 06:57:36;;;;;;;9.52;8.63;;;;;;;40.98;24.77;99253.44;5121480;27;20421;-76
2021/06/27 07:00:03;;;;;;;;;;;;;;;41.23;24.62;99244.16;5122699;27;20043;-73
2021/06/27 07:02:29;;;;;;;10.98;8.35;;;;;;;41.66;23.79;99252.59;5121668;27;19915;-77
2021/06/27 07:04:55;;;;;;;12.25;8.20;;;;;;;41.97;23.44;99249.41;5119803;27;20039;-75
2021/06/27 07:07:21;;;;;;;10.13;8.40;;;;;;;41.76;23.83;99245.81;5104823;27;20392;-76
2021/06/27 07:09:46;;;;;;;;;;;;;;;42.76;22.24;99245.06;5126051;27;20039;-79
2021/06/27 07:12:12;;;;;;;9.93;8.55;;;;;;;42.87;22.58;99249.03;5121100;27;19915;-78
2021/06/27 07:14:38;;;;;;;12.52;7.55;;;;;;;43.06;21.95;99247.63;5126084;27;20810;-75
2021/06/27 07:17:04;;;;;;;10.30;8.75;;;;;;;42.83;22.31;99250.88;5129823;27;20035;-77
2021/06/27 07:19:30;;;;;;;13.82;8.18;;;;;;;43.21;22.01;99249.75;5124870;27;20035;-76
2021/06/27 07:21:56;;;;;;;10.35;8.55;;;;;;;42.62;22.46;99257.31;5129688;27;20050;-77
2021/06/27 07:24:22;;;;;;;10.18;9.15;;;;;;;42.43;23.08;99243.13;5127270;27;20035;-76
2021/06/27 07:26:48;;;;;;;10.07;8.57;;;;;;;43.06;22.27;99247.63;5138258;27;20041;-73
2021/06/27 07:29:14;;;;;;;16.17;8.98;;;;;;;44.24;21.37;99244.88;5131861;27;20047;-75
2021/06/27 07:31:41;;;;;;;10.13;9.13;;;;;;;44.37;21.01;99250.44;5115519;27;20251;-74
2021/06/27 07:34:06;;;;;;;11.77;8.40;;;;;;;44.81;20.62;99246.81;5129792;27;20460;-77
2021/06/27 07:36:34;;;;;;;12.48;9.48;;;;;;;43.48;21.53;99258.53;5095627;28;20040;-74
2021/06/27 07:38:59;;;;;;;10.98;9.48;;;;;;;44.36;21.26;99257.16;5124344;27;20042;-71
2021/06/27 07:41:25;;;;;;;12.23;9.43;;;;;;;45.63;19.98;99259.13;5131228;27;20404;-74
2021/06/27 07:43:51;;;;;;;12.25;10.93;;;;;;;44.70;20.60;99249.28;5132313;27;20055;-74
2021/06/27 07:46:18;;;;;;;9.50;8.75;;;;;;;44.95;20.52;99249.94;5132461;27;20050;-77
2021/06/27 07:48:44;;;;;;;11.23;7.93;;;;;;;44.46;19.72;99261.41;5131238;27;20480;-75
2021/06/27 07:51:10;;;;;;;11.55;7.15;;;;;;;45.17;18.41;99256.88;5128234;27;20050;-76
2021/06/27 07:53:36;;;;;;;11.18;8.57;;;;;;;45.33;19.16;99250.47;5113492;27;20509;-75
2021/06/27 07:56:02;;;;;;;11.00;9.18;;;;;;;45.08;19.17;99259.03;5119743;27;20122;-77
2021/06/27 07:58:29;;;;;;;10.52;8.23;;;;;;;44.27;20.12;99255.31;5113796;27;20039;-73
2021/06/27 08:00:54;;;;;;;14.80;8.70;;;;;;;44.11;20.39;99258.06;5128931;27;20050;-76
2021/06/27 08:03:20;;;;;;;10.55;8.02;;;;;;;43.72;20.66;99248.53;5130995;27;20508;-80
2021/06/27 08:05:46;;;;;;;12.25;8.25;;;;;;;43.25;21.27;99247.91;5132087;27;20125;-79
2021/06/27 08:08:13;;;;;;;7.50;6.90;;;;;;;43.74;19.36;99240.63;5133109;27;20045;-78
2021/06/27 08:10:39;;;;;;;10.57;6.22;;;;;;;44.59;18.27;99247.03;5132977;27;20050;-83
2021/06/27 08:13:05;;;;;;;7.90;7.07;;;;;;;44.30;18.81;99241.84;5132939;27;20043;-76
2021/06/27 08:15:31;;;;;;;8.27;7.53;;;;;;;44.46;18.59;99253.06;5133318;27;20372;-77
2021/06/27 08:17:57;;;;;;;7.72;6.88;;;;;;;44.13;18.55;99254.94;5131776;27;20426;-76
2021/06/27 08:20:23;;;;;;;6.82;6.22;;;;;;;42.36;19.88;99243.72;5133215;27;20054;-74
2021/06/27 08:22:50;;;;;;;10.45;7.80;;;;;;;43.21;19.69;99244.19;5133590;27;20039;-78
